Time;durP1;ratioP1;P1;durP2;ratioP2;P2;SDS_P1;SDS_P2;PMS_P1;PMS_P2;Temp;Humidity;BMP_temperature;BMP_pressure;BME280_temperature;BME280_humidity;BME280_pressure;Samples;Min_cycle;Max_cycle;Signal;HPM_P1;HPM_P2
2022/12/09 00:00:30;;;;;;;16.70;10.80;;;0.70;99.90;;;;;;5026047;28;21128;-74
2022/12/09 00:02:55;;;;;;;17.47;12.00;;;0.70;99.90;;;;;;5025031;28;20765;-80
2022/12/09 00:05:21;;;;;;;12.77;10.43;;;0.60;99.90;;;;;;5024706;28;20690;-77
2022/12/09 00:07:46;;;;;;;15.40;10.57;;;0.60;99.90;;;;;;5024663;28;20219;-83
2022/12/09 00:10:12;;;;;;;16.37;11.30;;;0.60;99.90;;;;;;5021899;28;20203;-78
2022/12/09 00:12:37;;;;;;;12.50;10.43;;;0.60;99.90;;;;;;5022855;28;20792;-77
2022/12/09 00:15:03;;;;;;;16.10;11.43;;;0.60;99.90;;;;;;5017850;28;20258;-77
2022/12/09 00:17:29;;;;;;;16.57;11.20;;;0.50;99.90;;;;;;5017404;28;20210;-75
2022/12/09 00:19:55;;;;;;;16.53;11.37;;;0.50;99.90;;;;;;5018679;28;20196;-77
2022/12/09 00:22:20;;;;;;;15.23;10.77;;;0.40;99.90;;;;;;5020690;28;20209;-78
2022/12/09 00:24:46;;;;;;;13.77;10.40;;;0.50;99.90;;;;;;5020903;28;20211;-74
2022/12/09 00:27:11;;;;;;;14.23;10.87;;;0.40;99.90;;;;;;5021141;28;20766;-79
2022/12/09 00:29:37;;;;;;;15.03;10.97;;;0.50;99.90;;;;;;5021884;28;20229;-70
2022/12/09 00:32:03;;;;;;;22.33;12.77;;;0.50;99.90;;;;;;5021473;28;20208;-70
2022/12/09 00:34:28;;;;;;;17.90;13.13;;;0.50;99.90;;;;;;5019059;28;20208;-84
2022/12/09 00:36:53;;;;;;;17.07;12.00;;;0.40;99.90;;;;;;5014563;28;20210;-70
2022/12/09 00:39:19;;;;;;;19.27;12.47;;;0.40;99.90;;;;;;5007406;28;20246;-67
2022/12/09 00:41:44;;;;;;;16.23;12.17;;;0.40;99.90;;;;;;5007213;28;20203;-72
2022/12/09 00:44:10;;;;;;;19.00;12.73;;;0.40;99.90;;;;;;5007658;28;20872;-73
2022/12/09 00:46:36;;;;;;;15.13;11.53;;;0.30;99.90;;;;;;5008268;28;20204;-74
2022/12/09 00:49:03;;;;;;;15.40;11.50;;;0.40;99.90;;;;;;5004576;28;20228;-69
2022/12/09 00:51:28;;;;;;;14.27;11.17;;;0.30;99.90;;;;;;5016845;28;20205;-73
2022/12/09 00:53:54;;;;;;;18.93;11.30;;;0.40;99.90;;;;;;5017123;28;20586;-73
2022/12/09 00:56:21;;;;;;;16.50;11.77;;;0.30;99.90;;;;;;5015302;28;20212;-72
2022/12/09 00:58:47;;;;;;;17.77;12.40;;;0.30;99.90;;;;;;5021601;28;20216;-74
2022/12/09 01:01:12;;;;;;;15.30;11.83;;;0.30;99.90;;;;;;5020542;28;20266;-74
2022/12/09 01:03:38;;;;;;;17.43;11.57;;;0.20;99.90;;;;;;5007241;28;20914;-73
2022/12/09 01:06:12;;;;;;;16.53;11.53;;;0.20;99.90;;;;;;5007293;28;20287;-68
2022/12/09 01:08:38;;;;;;;14.70;11.43;;;0.10;99.90;;;;;;5007097;28;20575;-74
2022/12/09 01:11:13;;;;;;;18.50;12.70;;;0.10;99.90;;;;;;5004908;28;20213;-65
2022/12/09 01:13:39;;;;;;;18.13;12.63;;;0.00;99.90;;;;;;5006086;28;20214;-73
2022/12/09 01:16:13;;;;;;;17.27;11.77;;;0.10;99.90;;;;;;5006224;28;20212;-72
2022/12/09 01:18:38;;;;;;;17.43;13.07;;;0.20;99.90;;;;;;5007631;28;20211;-66
2022/12/09 01:21:04;;;;;;;14.40;12.03;;;0.30;99.90;;;;;;5006856;28;20212;-66
2022/12/09 01:23:29;;;;;;;16.67;12.00;;;0.30;99.90;;;;;;5007035;28;20301;-66
2022/12/09 01:25:55;;;;;;;17.23;12.97;;;0.40;99.90;;;;;;5007384;28;20204;-66
2022/12/09 01:28:20;;;;;;;16.40;11.63;;;0.50;99.90;;;;;;5018647;28;20255;-67
2022/12/09 01:30:46;;;;;;;19.67;13.73;;;0.50;99.90;;;;;;5010895;28;20193;-66
2022/12/09 01:33:11;;;;;;;16.87;11.60;;;0.50;99.90;;;;;;5008529;28;20616;-67
2022/12/09 01:35:40;;;;;;;15.50;11.70;;;0.50;99.90;;;;;;5016265;28;20764;-67
2022/12/09 01:38:05;;;;;;;14.03;10.67;;;0.60;99.90;;;;;;5005746;28;20568;-66
2022/12/09 01:40:31;;;;;;;16.00;12.23;;;0.60;99.90;;;;;;5015891;28;20217;-73
2022/12/09 01:42:56;;;;;;;17.43;12.43;;;0.50;99.90;;;;;;5002403;28;20232;-72
2022/12/09 01:45:22;;;;;;;15.30;12.50;;;0.50;99.90;;;;;;5006347;28;20198;-69
2022/12/09 01:47:55;;;;;;;15.73;11.60;;;0.50;99.90;;;;;;5006633;28;20205;-72
2022/12/09 01:50:21;;;;;;;14.10;11.03;;;0.50;99.90;;;;;;5004603;28;20264;-65
2022/12/09 01:52:48;;;;;;;16.20;12.97;;;0.50;99.90;;;;;;5015873;28;20276;-65
2022/12/09 01:55:14;;;;;;;17.97;13.13;;;0.50;99.90;;;;;;5015691;28;20218;-64
2022/12/09 01:57:40;;;;;;;15.27;12.23;;;0.40;99.90;;;;;;5015512;28;20240;-64
2022/12/09 02:00:06;;;;;;;17.07;11.93;;;0.40;99.90;;;;;;5014794;28;20714;-64
2022/12/09 02:02:36;;;;;;;15.50;11.97;;;0.40;99.90;;;;;;5014259;28;20271;-72
2022/12/09 02:05:03;;;;;;;17.83;11.93;;;0.40;99.90;;;;;;5019452;28;20217;-72
2022/12/09 02:07:29;;;;;;;16.73;13.03;;;0.40;99.90;;;;;;5018982;28;20360;-74
2022/12/09 02:09:54;;;;;;;18.90;14.03;;;0.50;99.90;;;;;;5018368;28;20720;-66
2022/12/09 02:12:32;;;;;;;18.13;13.40;;;0.50;99.90;;;;;;5019329;28;20211;-66
2022/12/09 02:15:06;;;;;;;16.63;13.57;;;0.60;99.90;;;;;;5019451;28;20611;-65
2022/12/09 02:17:38;;;;;;;19.13;13.67;;;0.60;99.90;;;;;;5013629;28;20684;-66
2022/12/09 02:20:24;;;;;;;17.80;12.53;;;0.70;99.90;;;;;;5021498;28;20221;-64
2022/12/09 02:23:05;;;;;;;17.83;13.90;;;0.80;99.90;;;;;;5017918;28;20204;-65
2022/12/09 02:25:48;;;;;;;18.27;13.43;;;0.80;99.90;;;;;;5011951;28;20779;-64
2022/12/09 02:28:46;;;;;;;19.03;12.33;;;0.80;99.90;;;;;;5014541;28;20237;-65
2022/12/09 02:31:51;;;;;;;17.03;12.67;;;0.90;99.90;;;;;;5019029;28;20202;-65
2022/12/09 02:34:21;;;;;;;19.07;12.93;;;1.00;99.90;;;;;;5018756;28;20209;-65
2022/12/09 02:37:13;;;;;;;15.80;12.90;;;1.00;99.90;;;;;;5019212;28;20225;-65
2022/12/09 02:39:50;;;;;;;18.30;12.90;;;1.10;99.90;;;;;;5019278;28;20587;-64
2022/12/09 02:42:19;;;;;;;18.07;11.70;;;1.10;99.90;;;;;;5019060;28;20288;-65
2022/12/09 02:44:48;;;;;;;19.50;13.97;;;1.10;99.90;;;;;;5018650;28;20225;-65
2022/12/09 02:47:17;;;;;;;16.77;12.73;;;1.10;99.90;;;;;;5018766;28;20202;-65
2022/12/09 02:49:46;;;;;;;14.63;12.53;;;1.10;99.90;;;;;;5019172;28;20202;-64
2022/12/09 02:52:13;;;;;;;15.43;11.43;;;1.10;99.90;;;;;;5019059;28;20286;-64
2022/12/09 02:54:40;;;;;;;18.10;14.03;;;1.10;99.90;;;;;;5018857;28;20205;-64
2022/12/09 02:57:24;;;;;;;16.63;13.30;;;1.10;99.90;;;;;;5018975;28;20220;-65
2022/12/09 02:59:50;;;;;;;16.97;12.07;;;1.00;99.90;;;;;;5018778;28;20732;-64
2022/12/09 03:02:27;;;;;;;15.87;12.07;;;1.10;99.90;;;;;;5018630;28;20429;-64
2022/12/09 03:05:25;;;;;;;17.27;13.10;;;1.00;99.90;;;;;;5019418;28;20214;-65
2022/12/09 03:08:05;;;;;;;17.10;13.03;;;1.00;99.90;;;;;;5029096;28;20211;-64
2022/12/09 03:10:42;;;;;;;14.60;12.27;;;1.00;99.90;;;;;;5016793;28;20221;-65
2022/12/09 03:13:33;;;;;;;19.30;14.17;;;1.00;99.90;;;;;;5018604;28;20202;-66
2022/12/09 03:16:14;;;;;;;16.57;12.73;;;1.00;99.90;;;;;;5017823;28;20665;-65
2022/12/09 03:18:44;;;;;;;16.57;13.27;;;1.00;99.90;;;;;;5016434;28;20276;-65
2022/12/09 03:21:12;;;;;;;16.87;12.17;;;1.00;99.90;;;;;;5018157;28;20221;-65
2022/12/09 03:23:39;;;;;;;16.87;12.30;;;1.00;99.90;;;;;;5018371;28;20233;-65
2022/12/09 03:26:05;;;;;;;15.47;12.07;;;1.10;99.90;;;;;;5017885;28;20231;-64
2022/12/09 03:28:39;;;;;;;16.27;12.37;;;1.10;99.90;;;;;;5020193;28;20204;-67
2022/12/09 03:31:11;;;;;;;16.53;12.27;;;1.10;99.90;;;;;;5012797;28;20342;-66
2022/12/09 03:33:36;;;;;;;15.67;12.33;;;1.10;99.90;;;;;;5013042;28;20670;-66
2022/12/09 03:36:04;;;;;;;16.43;12.43;;;1.10;99.90;;;;;;5016143;28;20202;-66
2022/12/09 03:38:35;;;;;;;16.20;11.90;;;1.10;99.90;;;;;;5017213;28;20728;-66
2022/12/09 03:41:27;;;;;;;13.57;11.60;;;1.10;99.90;;;;;;5018183;28;20690;-66
2022/12/09 03:43:58;;;;;;;15.33;12.17;;;1.10;99.90;;;;;;5015416;28;20303;-66
2022/12/09 03:46:24;;;;;;;16.50;12.23;;;1.10;99.90;;;;;;5008194;28;20293;-66
2022/12/09 03:48:50;;;;;;;18.37;13.00;;;1.10;99.90;;;;;;5017367;28;20209;-66
2022/12/09 03:51:23;;;;;;;19.23;12.77;;;1.10;99.90;;;;;;5007162;28;20201;-66
2022/12/09 03:53:57;;;;;;;15.30;11.17;;;1.10;99.90;;;;;;5007523;28;20204;-66
2022/12/09 03:56:34;;;;;;;16.60;12.63;;;1.20;99.90;;;;;;5014767;28;20314;-66
2022/12/09 03:59:02;;;;;;;17.50;12.33;;;1.20;99.90;;;;;;5017867;28;20292;-66
2022/12/09 04:01:30;;;;;;;17.63;13.03;;;1.30;99.90;;;;;;5017654;28;20219;-66
2022/12/09 04:03:56;;;;;;;16.00;11.77;;;1.20;99.90;;;;;;5016507;28;20214;-65
2022/12/09 04:06:22;;;;;;;18.10;13.10;;;1.30;99.90;;;;;;5008278;28;20233;-65
2022/12/09 04:08:47;;;;;;;16.90;12.73;;;1.30;99.90;;;;;;5017635;28;20274;-65
2022/12/09 04:11:13;;;;;;;17.40;12.50;;;1.30;99.90;;;;;;5017609;28;20201;-64
2022/12/09 04:13:39;;;;;;;16.77;12.77;;;1.30;99.90;;;;;;5017641;28;20228;-65
2022/12/09 04:16:04;;;;;;;14.80;10.93;;;1.20;99.90;;;;;;5017599;28;20206;-64
2022/12/09 04:18:30;;;;;;;18.23;13.77;;;1.20;99.90;;;;;;5016529;28;20696;-65
2022/12/09 04:20:55;;;;;;;13.53;11.40;;;1.30;99.90;;;;;;5014368;28;20201;-64
2022/12/09 04:23:21;;;;;;;19.00;12.47;;;1.20;99.90;;;;;;5005999;28;20248;-64
2022/12/09 04:25:46;;;;;;;18.70;12.70;;;1.20;99.90;;;;;;5007448;28;20194;-65
2022/12/09 04:28:12;;;;;;;17.83;13.07;;;1.30;99.90;;;;;;5009482;28;20262;-65
2022/12/09 04:30:37;;;;;;;15.80;12.03;;;1.30;99.90;;;;;;5014059;28;20192;-65
2022/12/09 04:33:03;;;;;;;16.53;12.17;;;1.30;99.90;;;;;;5015354;28;20200;-64
2022/12/09 04:35:28;;;;;;;17.90;12.57;;;1.30;99.90;;;;;;5010064;28;20679;-64
2022/12/09 04:37:54;;;;;;;17.47;12.57;;;1.30;99.90;;;;;;5015352;28;20228;-64
2022/12/09 04:40:19;;;;;;;17.63;13.43;;;1.40;99.90;;;;;;5015508;28;20214;-64
2022/12/09 04:42:45;;;;;;;16.03;12.60;;;1.40;99.90;;;;;;5016828;28;20197;-65
2022/12/09 04:45:10;;;;;;;34.80;22.53;;;1.40;99.90;;;;;;5016907;28;20256;-65
2022/12/09 04:47:36;;;;;;;20.27;14.37;;;1.40;99.90;;;;;;5003738;28;20194;-65
2022/12/09 04:50:03;;;;;;;19.00;13.10;;;1.40;99.90;;;;;;5006565;28;20329;-65
2022/12/09 04:52:29;;;;;;;17.23;13.00;;;1.30;99.90;;;;;;5005087;28;20573;-65
2022/12/09 04:54:54;;;;;;;16.53;11.83;;;1.30;99.90;;;;;;5007588;28;20861;-65
2022/12/09 04:57:20;;;;;;;15.90;12.53;;;1.20;99.90;;;;;;5006955;28;20240;-65
2022/12/09 04:59:45;;;;;;;19.23;13.60;;;1.10;99.90;;;;;;5016727;28;20545;-65
2022/12/09 05:02:11;;;;;;;19.27;12.23;;;1.10;99.90;;;;;;5007054;28;20202;-65
2022/12/09 05:04:36;;;;;;;18.53;12.67;;;1.00;99.90;;;;;;5005250;28;20233;-65
2022/12/09 05:07:02;;;;;;;15.63;12.57;;;0.90;99.90;;;;;;5006311;28;20192;-66
2022/12/09 05:09:27;;;;;;;18.80;12.90;;;0.80;99.90;;;;;;5005055;28;20221;-65
2022/12/09 05:11:56;;;;;;;19.57;13.67;;;0.80;99.90;;;;;;4956687;28;20195;-66
2022/12/09 05:14:21;;;;;;;16.23;11.67;;;0.80;99.90;;;;;;5006040;28;20768;-66
2022/12/09 05:16:47;;;;;;;14.23;12.40;;;0.80;99.90;;;;;;5013485;28;20204;-66
2022/12/09 05:19:12;;;;;;;19.63;12.60;;;0.80;99.90;;;;;;5006635;28;20691;-66
2022/12/09 05:21:37;;;;;;;17.13;13.23;;;0.80;99.90;;;;;;5016156;28;20239;-66
2022/12/09 05:24:03;;;;;;;18.37;13.03;;;0.80;99.90;;;;;;5006666;28;20228;-66
2022/12/09 05:26:29;;;;;;;19.27;13.67;;;0.90;99.90;;;;;;5006675;28;20740;-65
2022/12/09 05:28:54;;;;;;;15.53;12.57;;;0.90;99.90;;;;;;5006823;28;20687;-65
2022/12/09 05:31:22;;;;;;;21.00;14.50;;;0.90;99.90;;;;;;5003291;28;20312;-65
2022/12/09 05:33:49;;;;;;;18.57;13.00;;;0.90;99.90;;;;;;5005716;28;20238;-63
2022/12/09 05:36:16;;;;;;;18.40;13.80;;;1.00;99.90;;;;;;5005447;28;20303;-64
2022/12/09 05:38:42;;;;;;;18.40;13.60;;;1.00;99.90;;;;;;5008655;28;20649;-65
2022/12/09 05:41:08;;;;;;;18.50;14.13;;;1.00;99.90;;;;;;5008172;28;20208;-66
2022/12/09 05:43:34;;;;;;;17.17;12.40;;;1.00;99.90;;;;;;5013899;28;20588;-68
2022/12/09 05:46:00;;;;;;;26.80;21.17;;;1.00;99.90;;;;;;5007910;28;20280;-66
2022/12/09 05:48:26;;;;;;;24.67;16.57;;;0.90;99.90;;;;;;5010921;28;20432;-66
2022/12/09 05:51:05;;;;;;;19.47;12.57;;;0.90;99.90;;;;;;5010416;28;20220;-67
2022/12/09 05:53:32;;;;;;;22.20;12.63;;;0.90;99.90;;;;;;5009328;28;20206;-67
2022/12/09 05:55:57;;;;;;;18.73;13.03;;;0.90;99.90;;;;;;5009581;28;20209;-66
2022/12/09 05:58:23;;;;;;;17.93;13.73;;;0.90;99.90;;;;;;5008889;28;20237;-65
2022/12/09 06:00:48;;;;;;;18.80;14.87;;;0.90;99.90;;;;;;5009571;28;20255;-65
2022/12/09 06:03:14;;;;;;;19.87;13.87;;;1.00;99.90;;;;;;5008032;28;20309;-65
2022/12/09 06:05:41;;;;;;;18.80;13.30;;;1.10;99.90;;;;;;5010087;28;20680;-65
2022/12/09 06:08:07;;;;;;;18.77;13.60;;;1.20;99.90;;;;;;5009385;28;20280;-64
2022/12/09 06:10:33;;;;;;;17.60;13.43;;;1.30;99.90;;;;;;5008903;28;20209;-65
2022/12/09 06:12:58;;;;;;;18.90;14.07;;;1.30;99.90;;;;;;5009846;28;20201;-65
2022/12/09 06:15:24;;;;;;;22.73;13.83;;;1.40;99.90;;;;;;5007579;28;20247;-65
2022/12/09 06:17:50;;;;;;;21.40;14.03;;;1.50;99.90;;;;;;5009129;28;20203;-65
2022/12/09 06:20:16;;;;;;;21.57;14.37;;;1.60;99.90;;;;;;5009061;28;20309;-65
2022/12/09 06:22:42;;;;;;;21.10;15.20;;;1.60;99.90;;;;;;5008824;28;20243;-65
2022/12/09 06:25:07;;;;;;;19.63;15.07;;;1.60;99.90;;;;;;5009291;28;20724;-66
2022/12/09 06:27:33;;;;;;;24.17;15.97;;;1.70;99.90;;;;;;5008818;28;20791;-66
2022/12/09 06:29:58;;;;;;;26.20;17.47;;;1.80;99.90;;;;;;5007763;28;20193;-65
2022/12/09 06:32:24;;;;;;;24.77;15.40;;;1.80;99.90;;;;;;5019169;28;20607;-69
2022/12/09 06:34:49;;;;;;;23.17;14.10;;;1.90;99.90;;;;;;5018896;28;20323;-66
2022/12/09 06:37:15;;;;;;;23.37;14.67;;;1.90;99.90;;;;;;5019297;28;20213;-66
2022/12/09 06:39:41;;;;;;;25.17;15.97;;;2.00;99.90;;;;;;5017353;28;20571;-67
2022/12/09 06:42:06;;;;;;;22.67;15.63;;;2.00;99.90;;;;;;5018989;28;20684;-66
2022/12/09 06:44:32;;;;;;;22.17;15.43;;;2.00;99.90;;;;;;5018979;28;20218;-66
2022/12/09 06:46:58;;;;;;;26.63;15.97;;;2.00;99.90;;;;;;5018177;28;20299;-66
2022/12/09 06:49:23;;;;;;;29.40;17.33;;;2.00;99.90;;;;;;5016903;28;20200;-66
2022/12/09 06:51:49;;;;;;;26.47;16.50;;;2.00;99.90;;;;;;5018391;28;20301;-66
2022/12/09 06:54:15;;;;;;;26.97;17.90;;;2.00;99.90;;;;;;5017172;28;20217;-66
2022/12/09 06:56:40;;;;;;;25.67;15.83;;;2.00;99.90;;;;;;5017672;28;20225;-67
2022/12/09 06:59:10;;;;;;;25.97;16.57;;;2.00;99.90;;;;;;5018085;28;20284;-67
2022/12/09 07:01:37;;;;;;;36.57;18.40;;;1.90;99.90;;;;;;5018350;28;20217;-64
2022/12/09 07:04:03;;;;;;;27.97;18.27;;;1.80;99.90;;;;;;5018235;28;20327;-66
2022/12/09 07:06:36;;;;;;;30.33;17.77;;;1.80;99.90;;;;;;5014038;28;20300;-66
2022/12/09 07:09:05;;;;;;;26.83;16.27;;;1.70;99.90;;;;;;5018158;28;20218;-66
2022/12/09 07:11:31;;;;;;;29.97;18.77;;;1.70;99.90;;;;;;5011493;28;20201;-66
2022/12/09 07:13:57;;;;;;;31.63;16.93;;;1.70;99.90;;;;;;5009559;28;20204;-66
2022/12/09 07:16:23;;;;;;;30.27;17.70;;;1.70;99.90;;;;;;5014897;28;20226;-66
2022/12/09 07:18:48;;;;;;;30.87;17.30;;;1.80;99.90;;;;;;5017833;28;20203;-67
2022/12/09 07:21:16;;;;;;;30.33;18.43;;;1.80;99.90;;;;;;5018451;28;20692;-66
2022/12/09 07:23:42;;;;;;;29.83;18.47;;;1.90;99.90;;;;;;5017287;28;20229;-66
2022/12/09 07:26:08;;;;;;;34.13;17.47;;;1.90;99.90;;;;;;5018427;28;20214;-69
2022/12/09 07:28:35;;;;;;;38.53;19.87;;;2.00;99.90;;;;;;5014881;28;20937;-69
2022/12/09 07:31:00;;;;;;;35.70;20.87;;;2.10;99.90;;;;;;5017633;28;20224;-59
2022/12/09 07:33:27;;;;;;;31.87;20.30;;;2.10;99.90;;;;;;5017655;28;20243;-60
2022/12/09 07:35:56;;;;;;;36.40;19.63;;;2.30;99.90;;;;;;5017791;28;20271;-60
2022/12/09 07:38:24;;;;;;;31.70;20.27;;;2.40;99.90;;;;;;5017273;28;20222;-59
2022/12/09 07:40:50;;;;;;;28.87;18.87;;;2.50;99.90;;;;;;5015873;28;20213;-59
2022/12/09 07:43:15;;;;;;;32.30;18.07;;;2.50;99.90;;;;;;5017207;28;20205;-61
2022/12/09 07:45:41;;;;;;;29.93;19.30;;;2.70;99.90;;;;;;5017429;28;20203;-62
2022/12/09 07:48:07;;;;;;;28.87;17.63;;;2.80;99.90;;;;;;5017278;28;20569;-60
2022/12/09 07:50:33;;;;;;;30.47;17.57;;;2.80;99.90;;;;;;5017383;28;20223;-60
2022/12/09 07:52:58;;;;;;;30.10;18.23;;;2.80;99.90;;;;;;5015361;28;20829;-63
2022/12/09 07:55:24;;;;;;;34.13;21.20;;;2.90;99.90;;;;;;5016949;28;20621;-60
2022/12/09 07:57:49;;;;;;;28.03;17.90;;;2.90;99.90;;;;;;5017892;28;20224;-63
2022/12/09 08:00:15;;;;;;;26.30;16.97;;;2.80;99.90;;;;;;5016330;28;20220;-63
2022/12/09 08:02:41;;;;;;;27.47;16.90;;;2.90;99.90;;;;;;5014837;28;20257;-63
2022/12/09 08:05:06;;;;;;;26.23;16.20;;;2.80;99.90;;;;;;5017007;28;20221;-63
2022/12/09 08:07:33;;;;;;;21.80;14.83;;;2.90;99.90;;;;;;5018190;28;20221;-66
2022/12/09 08:09:58;;;;;;;28.65;19.40;;;2.90;99.90;;;;;;5014500;28;20428;-67
2022/12/09 08:12:24;;;;;;;28.07;17.87;;;2.80;99.90;;;;;;5027314;28;20221;-66
2022/12/09 08:14:49;;;;;;;26.27;15.77;;;2.80;99.90;;;;;;5014896;28;20696;-65
2022/12/09 08:17:15;;;;;;;22.03;15.50;;;2.70;99.90;;;;;;5016281;28;20564;-66
2022/12/09 08:19:41;;;;;;;21.87;15.00;;;2.60;99.90;;;;;;5013596;28;20246;-64
2022/12/09 08:22:07;;;;;;;25.67;15.30;;;2.50;99.90;;;;;;5012180;28;20228;-65
2022/12/09 08:24:32;;;;;;;24.80;16.13;;;2.40;99.90;;;;;;5015972;28;20809;-65
2022/12/09 08:26:58;;;;;;;24.80;16.73;;;2.30;99.90;;;;;;5015775;28;20203;-65
2022/12/09 08:29:24;;;;;;;26.33;16.87;;;2.20;99.90;;;;;;5015773;28;20214;-66
2022/12/09 08:31:50;;;;;;;26.83;16.77;;;2.30;99.90;;;;;;5017199;28;20195;-66
2022/12/09 08:34:15;;;;;;;29.20;19.13;;;2.30;99.90;;;;;;5015179;28;20580;-67
2022/12/09 08:36:41;;;;;;;27.67;17.60;;;2.30;99.90;;;;;;5016857;28;20203;-65
2022/12/09 08:39:07;;;;;;;26.07;16.77;;;2.20;99.90;;;;;;5016956;28;20247;-65
2022/12/09 08:41:35;;;;;;;31.67;18.07;;;2.20;99.90;;;;;;5017877;28;20200;-65
2022/12/09 08:44:15;;;;;;;30.47;17.57;;;2.20;99.90;;;;;;5017201;28;20210;-65
2022/12/09 08:46:43;;;;;;;27.03;16.83;;;2.20;99.90;;;;;;5016280;28;20201;-65
2022/12/09 08:49:09;;;;;;;25.27;16.90;;;2.30;99.90;;;;;;5016735;28;20231;-66
2022/12/09 08:51:35;;;;;;;28.93;17.40;;;2.30;99.90;;;;;;5016807;28;20202;-66
2022/12/09 08:54:01;;;;;;;25.37;16.73;;;2.30;99.90;;;;;;5013174;28;20229;-66
2022/12/09 08:56:27;;;;;;;27.23;16.63;;;2.30;99.90;;;;;;5019578;28;20249;-65
2022/12/09 08:58:54;;;;;;;23.17;16.27;;;2.40;99.90;;;;;;5013543;28;20294;-65
2022/12/09 09:01:22;;;;;;;27.37;15.90;;;2.40;99.90;;;;;;5020162;28;20209;-66
2022/12/09 09:03:49;;;;;;;29.93;18.53;;;2.40;99.90;;;;;;5017972;28;20709;-69
2022/12/09 09:06:16;;;;;;;26.43;17.30;;;2.50;99.90;;;;;;5013785;28;20710;-78
2022/12/09 09:08:42;;;;;;;27.73;17.70;;;2.50;99.90;;;;;;5015519;28;20234;-66
2022/12/09 09:11:13;;;;;;;30.27;18.43;;;2.50;99.90;;;;;;5015700;28;20273;-65
2022/12/09 09:13:41;;;;;;;27.77;17.13;;;2.60;99.90;;;;;;4966228;28;20213;-65
2022/12/09 09:16:12;;;;;;;24.47;17.07;;;2.60;99.90;;;;;;5014577;28;20672;-65
2022/12/09 09:18:38;;;;;;;23.00;15.87;;;2.70;99.90;;;;;;5016113;28;20218;-61
2022/12/09 09:21:06;;;;;;;26.17;16.83;;;2.80;99.90;;;;;;5015717;28;20210;-61
2022/12/09 09:23:32;;;;;;;28.13;16.23;;;2.80;99.90;;;;;;5016364;28;20259;-61
2022/12/09 09:25:57;;;;;;;27.43;18.43;;;2.90;99.90;;;;;;5013763;28;20219;-61
2022/12/09 09:28:23;;;;;;;27.83;17.40;;;2.90;99.90;;;;;;5016792;28;20202;-60
2022/12/09 09:30:49;;;;;;;26.63;17.50;;;3.00;99.90;;;;;;5017127;28;20192;-60
2022/12/09 09:33:16;;;;;;;22.40;16.57;;;3.10;99.90;;;;;;5013846;28;20868;-62
2022/12/09 09:35:42;;;;;;;27.27;16.50;;;3.10;99.90;;;;;;5015279;28;20202;-63
2022/12/09 09:38:07;;;;;;;22.90;16.70;;;3.20;99.90;;;;;;5013699;28;20241;-62
2022/12/09 09:40:33;;;;;;;29.03;16.70;;;3.20;99.90;;;;;;5015524;28;20222;-61
2022/12/09 09:43:00;;;;;;;24.30;15.47;;;3.30;99.90;;;;;;5015563;28;20199;-60
2022/12/09 09:45:25;;;;;;;20.63;15.47;;;3.40;99.90;;;;;;5013955;28;20211;-62
2022/12/09 09:47:56;;;;;;;24.30;15.37;;;3.40;99.90;;;;;;5016108;28;20196;-62
2022/12/09 09:50:34;;;;;;;22.77;16.50;;;3.40;99.90;;;;;;5013127;28;20708;-64
2022/12/09 09:53:09;;;;;;;23.57;16.13;;;3.50;99.90;;;;;;5018376;28;20202;-61
2022/12/09 09:55:54;;;;;;;26.03;16.50;;;3.50;99.90;;;;;;5015582;28;20301;-61
2022/12/09 09:58:34;;;;;;;22.97;15.70;;;3.60;99.90;;;;;;5015557;28;20723;-61
2022/12/09 10:01:09;;;;;;;24.43;15.80;;;3.60;99.90;;;;;;5005605;28;20768;-61
2022/12/09 10:03:58;;;;;;;21.27;14.30;;;3.70;99.90;;;;;;5018275;28;20263;-61
2022/12/09 10:06:48;;;;;;;21.40;14.87;;;3.70;99.90;;;;;;5018865;28;20200;-61
2022/12/09 10:09:25;;;;;;;21.87;14.40;;;3.70;99.90;;;;;;5025982;28;20231;-61
2022/12/09 10:12:17;;;;;;;19.73;15.13;;;3.80;99.90;;;;;;5023006;28;20198;-60
2022/12/09 10:15:07;;;;;;;20.50;13.07;;;3.90;99.90;;;;;;5007667;28;20303;-61
2022/12/09 10:17:54;;;;;;;21.07;13.80;;;3.90;99.90;;;;;;5018991;28;20202;-77
2022/12/09 10:20:25;;;;;;;19.70;12.87;;;4.00;99.90;;;;;;5012410;28;20211;-57
2022/12/09 10:22:53;;;;;;;17.40;13.73;;;4.10;99.90;;;;;;5012040;28;20199;-61
2022/12/09 10:25:25;;;;;;;22.27;14.43;;;4.10;99.90;;;;;;5017290;28;20217;-57
2022/12/09 10:28:15;;;;;;;22.80;15.40;;;4.20;99.90;;;;;;5023652;28;20638;-58
2022/12/09 10:30:41;;;;;;;21.40;13.60;;;4.00;99.90;;;;;;5020941;28;20673;-57
2022/12/09 10:33:11;;;;;;;21.13;14.40;;;3.90;99.90;;;;;;5027083;28;20203;-57
2022/12/09 10:35:36;;;;;;;29.47;16.80;;;3.90;99.90;;;;;;5025258;28;20721;-57
2022/12/09 10:38:14;;;;;;;20.80;14.73;;;4.00;99.90;;;;;;5027728;28;20328;-57
2022/12/09 10:40:53;;;;;;;23.47;16.90;;;4.10;99.90;;;;;;5029313;28;20199;-56
2022/12/09 10:43:34;;;;;;;23.40;14.80;;;4.20;99.90;;;;;;5028324;28;20198;-56
2022/12/09 10:46:08;;;;;;;28.17;15.47;;;4.20;99.90;;;;;;5026692;28;20195;-58
2022/12/09 10:48:39;;;;;;;24.20;14.90;;;4.20;99.90;;;;;;5022247;28;20247;-57
2022/12/09 10:51:25;;;;;;;23.77;15.70;;;4.20;99.90;;;;;;5017836;28;20659;-57
2022/12/09 10:54:01;;;;;;;22.07;14.03;;;4.20;99.90;;;;;;5020430;28;20226;-58
2022/12/09 10:56:31;;;;;;;25.50;16.37;;;4.20;99.90;;;;;;5017880;28;20993;-58
2022/12/09 10:59:24;;;;;;;23.23;16.63;;;4.20;99.90;;;;;;5019339;28;20722;-60
2022/12/09 11:01:54;;;;;;;28.73;17.27;;;4.20;99.90;;;;;;5017709;28;20199;-59
2022/12/09 11:04:26;;;;;;;22.53;15.77;;;4.10;99.90;;;;;;5018820;28;20231;-59
2022/12/09 11:06:55;;;;;;;24.50;17.13;;;4.10;99.90;;;;;;5018693;28;20216;-66
2022/12/09 11:09:29;;;;;;;22.83;16.00;;;4.00;99.90;;;;;;5019153;28;20286;-63
2022/12/09 11:11:55;;;;;;;22.20;16.07;;;3.90;99.90;;;;;;5018523;28;20230;-61
2022/12/09 11:14:24;;;;;;;22.90;14.20;;;3.80;99.90;;;;;;5018194;28;20279;-62
2022/12/09 11:16:55;;;;;;;26.43;18.03;;;3.80;99.90;;;;;;5016054;28;20221;-61
2022/12/09 11:19:33;;;;;;;21.87;16.93;;;3.80;99.90;;;;;;5021242;28;20209;-62
2022/12/09 11:22:27;;;;;;;22.70;16.50;;;3.80;99.90;;;;;;5016353;28;20195;-62
2022/12/09 11:24:54;;;;;;;23.73;16.03;;;3.80;99.90;;;;;;5017992;28;20591;-61
2022/12/09 11:27:34;;;;;;;22.07;15.50;;;4.00;99.90;;;;;;5016929;28;20199;-62
2022/12/09 11:30:18;;;;;;;21.00;15.80;;;4.10;99.90;;;;;;5018403;28;20669;-61
2022/12/09 11:33:13;;;;;;;22.27;17.73;;;4.10;99.90;;;;;;5017642;28;20257;-61
2022/12/09 11:35:41;;;;;;;22.60;15.70;;;4.30;99.90;;;;;;5017320;28;20210;-61
2022/12/09 11:38:32;;;;;;;22.80;16.43;;;4.40;99.90;;;;;;5017573;28;20617;-61
2022/12/09 11:42:12;;;;;;;19.37;13.70;;;4.40;99.90;;;;;;5017620;28;20523;-61
2022/12/09 11:44:24;;;;;;;22.43;16.40;;;4.50;99.90;;;;;;5017377;28;20651;-61
2022/12/09 11:47:03;;;;;;;25.77;16.23;;;4.60;99.90;;;;;;5017398;28;20241;-61
2022/12/09 11:49:31;;;;;;;21.33;15.23;;;4.70;99.90;;;;;;5017694;28;20206;-61
2022/12/09 11:52:22;;;;;;;23.90;17.23;;;4.70;99.90;;;;;;5017378;28;20203;-61
2022/12/09 11:55:01;;;;;;;30.27;19.77;;;4.60;99.90;;;;;;5015453;28;20414;-62
2022/12/09 11:57:33;;;;;;;27.43;19.17;;;4.60;99.90;;;;;;5016844;28;20230;-62
2022/12/09 12:00:04;;;;;;;32.47;20.43;;;4.40;99.90;;;;;;5015694;28;20206;-62
2022/12/09 12:02:53;;;;;;;33.60;21.43;;;4.30;99.90;;;;;;5016864;28;20595;-62
2022/12/09 12:05:33;;;;;;;32.63;21.80;;;4.20;99.90;;;;;;5017167;28;20686;-62
2022/12/09 12:08:26;;;;;;;33.30;21.27;;;4.10;99.90;;;;;;5016809;28;20610;-62
2022/12/09 12:10:54;;;;;;;33.67;20.90;;;4.00;99.90;;;;;;5017097;28;20262;-62
2022/12/09 12:13:27;;;;;;;26.73;19.73;;;3.90;99.90;;;;;;5016333;28;20691;-63
2022/12/09 12:16:05;;;;;;;32.10;20.57;;;3.90;99.90;;;;;;5008374;28;20673;-62
2022/12/09 12:18:39;;;;;;;34.67;20.87;;;3.90;99.90;;;;;;5015125;28;20560;-63
2022/12/09 12:21:43;;;;;;;33.03;20.90;;;4.00;99.90;;;;;;5015733;28;20207;-62
2022/12/09 12:24:48;;;;;;;31.43;21.00;;;4.00;99.90;;;;;;5016894;28;20374;-62
2022/12/09 12:27:39;;;;;;;28.10;18.93;;;4.00;99.90;;;;;;5015952;28;20195;-63
2022/12/09 12:30:09;;;;;;;28.47;20.07;;;4.10;99.90;;;;;;5016792;28;20621;-62
2022/12/09 12:33:16;;;;;;;31.70;23.83;;;4.20;99.90;;;;;;5014573;28;20666;-62
2022/12/09 12:36:02;;;;;;;35.30;22.80;;;4.30;99.90;;;;;;5016685;28;20213;-63
2022/12/09 12:38:48;;;;;;;37.10;23.93;;;4.30;99.90;;;;;;5016543;28;20207;-62
2022/12/09 12:41:20;;;;;;;32.90;22.27;;;4.30;99.90;;;;;;5016612;28;20615;-62
2022/12/09 12:47:38;;;;;;;37.23;22.93;;;4.30;99.90;;;;;;4999218;28;20235;-62
2022/12/09 12:50:37;;;;;;;35.37;23.83;;;4.20;99.90;;;;;;5014482;28;20256;-63
2022/12/09 12:53:20;;;;;;;31.97;21.87;;;4.10;99.90;;;;;;5016372;28;20249;-63
2022/12/09 12:56:03;;;;;;;35.90;21.70;;;4.00;99.90;;;;;;5015918;28;20211;-61